Time;durP1;ratioP1;P1;durP2;ratioP2;P2;SDS_P1;SDS_P2;PMS_P1;PMS_P2;Temp;Humidity;BMP_temperature;BMP_pressure;BME280_temperature;BME280_humidity;BME280_pressure;Samples;Min_cycle;Max_cycle;Signal;HPM_P1;HPM_P2
2022/05/01 00:00:48;;;;;;;25.38;10.95;;;;;;;;;;4969625;28;20425;-64
2022/05/01 00:03:33;;;;;;;20.80;10.25;;;;;;;;;;4969175;28;20445;-65
2022/05/01 00:06:05;;;;;;;21.55;9.80;;;;;;;;;;4968795;28;20306;-65
2022/05/01 00:08:31;;;;;;;19.25;8.45;;;;;;;;;;4968337;28;20444;-66
2022/05/01 00:10:57;;;;;;;21.40;10.32;;;;;;;;;;4968136;28;20362;-65
2022/05/01 00:13:23;;;;;;;21.38;9.85;;;;;;;;;;4969723;28;20351;-65
2022/05/01 00:15:49;;;;;;;18.77;9.20;;;;;;;;;;4952500;28;20326;-64
2022/05/01 00:18:14;;;;;;;22.85;10.13;;;;;;;;;;4971806;28;20373;-64
2022/05/01 00:20:40;;;;;;;19.75;9.43;;;;;;;;;;4972744;28;20452;-65
2022/05/01 00:23:05;;;;;;;20.88;9.80;;;;;;;;;;4972972;28;20298;-64
2022/05/01 00:25:31;;;;;;;18.58;9.05;;;;;;;;;;4972223;28;20550;-65
2022/05/01 00:27:56;;;;;;;19.10;8.98;;;;;;;;;;4972012;28;20345;-64
2022/05/01 00:30:22;;;;;;;23.17;9.43;;;;;;;;;;4954272;28;20345;-65
2022/05/01 00:38:16;;;;;;;22.23;9.38;;;;;;;;;;4971504;28;20352;-64
2022/05/01 00:40:42;;;;;;;19.58;9.10;;;;;;;;;;4971263;28;20127;-64
2022/05/01 00:43:07;;;;;;;21.52;9.38;;;;;;;;;;4971502;28;20056;-64
2022/05/01 00:45:33;;;;;;;19.77;8.88;;;;;;;;;;4972890;28;20026;-64
2022/05/01 00:47:58;;;;;;;20.60;10.48;;;;;;;;;;4971767;28;20429;-64
2022/05/01 00:50:24;;;;;;;18.83;8.85;;;;;;;;;;4971429;28;20392;-66
2022/05/01 00:52:51;;;;;;;18.50;9.02;;;;;;;;;;4971664;28;20314;-65
2022/05/01 00:55:16;;;;;;;22.33;8.75;;;;;;;;;;4953589;28;20396;-65
2022/05/01 00:57:43;;;;;;;19.10;8.52;;;;;;;;;;4971518;28;20337;-65
2022/05/01 01:00:09;;;;;;;22.25;8.52;;;;;;;;;;4945544;28;20026;-65
2022/05/01 01:02:34;;;;;;;15.63;8.18;;;;;;;;;;4951474;28;20053;-64
2022/05/01 01:05:00;;;;;;;20.00;9.55;;;;;;;;;;4951826;28;20406;-65
2022/05/01 01:07:26;;;;;;;17.92;8.18;;;;;;;;;;4951838;28;20365;-65
2022/05/01 01:09:51;;;;;;;23.05;9.00;;;;;;;;;;4952128;28;20092;-65
2022/05/01 01:15:09;;;;;;;16.35;7.45;;;;;;;;;;4952240;28;20557;-65
2022/05/01 01:17:42;;;;;;;18.17;8.88;;;;;;;;;;4934365;28;20061;-64
2022/05/01 01:20:11;;;;;;;17.55;7.63;;;;;;;;;;4951478;28;20448;-64
2022/05/01 01:22:37;;;;;;;16.95;8.27;;;;;;;;;;4952645;28;20044;-65
2022/05/01 01:25:03;;;;;;;17.25;7.63;;;;;;;;;;4933631;28;20349;-65
2022/05/01 01:27:28;;;;;;;19.05;8.52;;;;;;;;;;4917512;28;20353;-64
2022/05/01 01:32:39;;;;;;;17.00;7.72;;;;;;;;;;4937557;28;20393;-64
2022/05/01 01:35:06;;;;;;;22.77;8.15;;;;;;;;;;4951231;28;20137;-65
2022/05/01 01:37:33;;;;;;;16.27;7.65;;;;;;;;;;4933182;28;20386;-64
2022/05/01 01:39:58;;;;;;;18.60;7.72;;;;;;;;;;4933838;28;20433;-65
2022/05/01 01:42:25;;;;;;;17.77;8.25;;;;;;;;;;4933934;28;20444;-64
2022/05/01 01:44:52;;;;;;;20.10;8.45;;;;;;;;;;4953300;28;20096;-66
2022/05/01 01:47:18;;;;;;;15.75;7.50;;;;;;;;;;4933156;28;20368;-66
2022/05/01 01:49:43;;;;;;;14.52;7.32;;;;;;;;;;4950800;28;20112;-64
2022/05/01 01:52:08;;;;;;;13.43;8.05;;;;;;;;;;4952035;28;20030;-65
2022/05/01 01:54:34;;;;;;;14.20;6.93;;;;;;;;;;4950717;28;20109;-65
2022/05/01 01:57:00;;;;;;;14.68;7.80;;;;;;;;;;4932621;28;20421;-65
2022/05/01 01:59:25;;;;;;;18.52;7.95;;;;;;;;;;4951821;28;20302;-64
2022/05/01 02:01:51;;;;;;;14.15;7.55;;;;;;;;;;4950319;28;20504;-65
2022/05/01 02:04:17;;;;;;;14.30;6.82;;;;;;;;;;4951341;28;20326;-65
2022/05/01 02:06:43;;;;;;;14.10;7.05;;;;;;;;;;4951315;28;20442;-65
2022/05/01 02:09:09;;;;;;;17.30;7.43;;;;;;;;;;4933727;28;20497;-65
2022/05/01 02:11:35;;;;;;;17.50;8.50;;;;;;;;;;4950098;28;20373;-65
2022/05/01 02:14:01;;;;;;;18.77;7.13;;;;;;;;;;4950384;28;20461;-65
2022/05/01 02:16:26;;;;;;;14.90;7.93;;;;;;;;;;4950478;28;20362;-65
2022/05/01 02:18:52;;;;;;;15.02;7.80;;;;;;;;;;4950111;28;20465;-65
2022/05/01 02:21:35;;;;;;;15.88;7.30;;;;;;;;;;4950604;28;20180;-66
2022/05/01 02:24:10;;;;;;;16.25;7.13;;;;;;;;;;4950260;28;20456;-65
2022/05/01 02:26:36;;;;;;;13.38;6.65;;;;;;;;;;4950415;28;20433;-66
2022/05/01 02:29:03;;;;;;;15.00;6.97;;;;;;;;;;4950968;28;20393;-65
2022/05/01 02:31:28;;;;;;;13.32;7.55;;;;;;;;;;4950712;28;20465;-65
2022/05/01 02:33:54;;;;;;;14.77;7.32;;;;;;;;;;4949899;28;20488;-65
2022/05/01 02:36:19;;;;;;;14.88;6.70;;;;;;;;;;4950268;28;20449;-65
2022/05/01 02:38:47;;;;;;;15.05;6.75;;;;;;;;;;4951251;28;20026;-64
2022/05/01 02:41:13;;;;;;;13.00;6.43;;;;;;;;;;4950293;28;20534;-64
2022/05/01 02:43:38;;;;;;;15.82;6.53;;;;;;;;;;4951326;28;20306;-65
2022/05/01 02:46:03;;;;;;;15.68;6.75;;;;;;;;;;4949716;28;20104;-64
2022/05/01 02:48:29;;;;;;;11.75;6.65;;;;;;;;;;4949916;28;20342;-65
2022/05/01 02:50:54;;;;;;;17.58;7.18;;;;;;;;;;4949984;28;20507;-65
2022/05/01 02:53:19;;;;;;;14.13;6.22;;;;;;;;;;4951494;28;20496;-65
2022/05/01 02:55:45;;;;;;;13.75;5.85;;;;;;;;;;4950568;28;20302;-65
2022/05/01 02:58:10;;;;;;;13.25;6.63;;;;;;;;;;4951458;28;20440;-65
2022/05/01 03:00:35;;;;;;;13.85;7.50;;;;;;;;;;4950986;28;20338;-64
2022/05/01 03:03:01;;;;;;;16.77;6.57;;;;;;;;;;4949815;28;20314;-65
2022/05/01 03:05:26;;;;;;;12.30;6.28;;;;;;;;;;4949903;28;20504;-66
2022/05/01 03:07:55;;;;;;;12.80;6.18;;;;;;;;;;4949588;28;20501;-64
2022/05/01 03:10:21;;;;;;;;;;;;;;;;;;4949716;28;20120;-65
2022/05/01 03:12:46;;;;;;;14.40;6.40;;;;;;;;;;4949368;28;19918;-64
2022/05/01 03:15:12;;;;;;;17.80;7.32;;;;;;;;;;4949981;28;20425;-65
2022/05/01 03:23:06;;;;;;;11.48;5.88;;;;;;;;;;4950852;28;20061;-65
2022/05/01 03:25:32;;;;;;;15.13;7.03;;;;;;;;;;4949324;28;20421;-65
2022/05/01 03:27:57;;;;;;;11.25;5.90;;;;;;;;;;4949434;28;20037;-65
2022/05/01 03:30:22;;;;;;;11.95;6.53;;;;;;;;;;4949407;28;20464;-64
2022/05/01 03:32:48;;;;;;;14.63;5.82;;;;;;;;;;4950333;28;20416;-65
2022/05/01 03:35:14;;;;;;;14.70;6.35;;;;;;;;;;4949649;28;20472;-65
2022/05/01 03:37:41;;;;;;;10.55;5.55;;;;;;;;;;4949605;28;20033;-65
2022/05/01 03:40:07;;;;;;;13.77;5.53;;;;;;;;;;4949828;28;20592;-64
2022/05/01 03:42:32;;;;;;;14.52;7.07;;;;;;;;;;4949635;28;20573;-65
2022/05/01 03:44:57;;;;;;;14.57;5.47;;;;;;;;;;4949526;28;20473;-65
2022/05/01 03:47:23;;;;;;;14.70;7.15;;;;;;;;;;4949777;28;20539;-65
2022/05/01 03:49:48;;;;;;;11.07;5.60;;;;;;;;;;4949264;28;20025;-65
2022/05/01 03:52:13;;;;;;;10.43;5.45;;;;;;;;;;4953025;28;20104;-64
2022/05/01 03:54:39;;;;;;;13.55;5.95;;;;;;;;;;4952716;28;20504;-65
2022/05/01 03:57:04;;;;;;;9.40;5.57;;;;;;;;;;4954028;28;20453;-64
2022/05/01 03:59:30;;;;;;;15.30;6.70;;;;;;;;;;4953682;28;20425;-65
2022/05/01 04:01:55;;;;;;;13.85;6.05;;;;;;;;;;4952999;28;20361;-64
2022/05/01 04:04:20;;;;;;;13.75;6.20;;;;;;;;;;4953002;28;20456;-65
2022/05/01 04:06:46;;;;;;;10.43;5.45;;;;;;;;;;4952525;28;20442;-65
2022/05/01 04:09:14;;;;;;;11.95;5.57;;;;;;;;;;4952958;28;20357;-65
2022/05/01 04:11:39;;;;;;;12.27;6.33;;;;;;;;;;4952104;28;20065;-65
2022/05/01 04:14:06;;;;;;;14.02;5.38;;;;;;;;;;4953789;28;20030;-65
2022/05/01 04:16:32;;;;;;;11.48;5.45;;;;;;;;;;4952856;28;20376;-64
2022/05/01 04:18:58;;;;;;;13.15;6.03;;;;;;;;;;4952202;28;20366;-65
2022/05/01 04:21:23;;;;;;;10.05;5.85;;;;;;;;;;4953255;28;20405;-66
2022/05/01 04:23:49;;;;;;;9.55;5.68;;;;;;;;;;4952929;28;20113;-65
2022/05/01 04:26:14;;;;;;;12.48;5.32;;;;;;;;;;4952879;28;20434;-65
2022/05/01 04:29:36;;;;;;;10.60;5.43;;;;;;;;;;4952606;28;20421;-65
2022/05/01 04:31:25;;;;;;;8.50;5.07;;;;;;;;;;4952797;28;20469;-65
2022/05/01 04:33:50;;;;;;;13.13;5.40;;;;;;;;;;4952249;28;20420;-65
2022/05/01 04:36:15;;;;;;;13.50;6.28;;;;;;;;;;4953580;28;20460;-65
2022/05/01 04:38:41;;;;;;;11.77;5.47;;;;;;;;;;4952788;28;20414;-65
2022/05/01 04:41:06;;;;;;;13.07;5.88;;;;;;;;;;4952593;28;20034;-65
2022/05/01 04:43:33;;;;;;;11.93;5.82;;;;;;;;;;4952309;28;20421;-65
2022/05/01 04:45:59;;;;;;;12.02;5.18;;;;;;;;;;4953076;28;20337;-66
2022/05/01 04:48:25;;;;;;;9.90;5.22;;;;;;;;;;4952314;28;20432;-65
2022/05/01 04:50:51;;;;;;;10.82;5.88;;;;;;;;;;4951626;28;20043;-65
2022/05/01 04:53:18;;;;;;;9.02;4.82;;;;;;;;;;4952129;28;20025;-65
2022/05/01 04:55:45;;;;;;;9.98;5.53;;;;;;;;;;4951808;28;20333;-65
2022/05/01 04:58:12;;;;;;;9.02;5.15;;;;;;;;;;4952124;28;20465;-65
2022/05/01 05:00:38;;;;;;;12.02;5.65;;;;;;;;;;4952435;28;20437;-65
2022/05/01 05:03:04;;;;;;;11.48;5.55;;;;;;;;;;4953063;28;20493;-65
2022/05/01 05:05:31;;;;;;;9.00;5.10;;;;;;;;;;4951560;28;20434;-65
2022/05/01 05:09:53;;;;;;;10.45;5.75;;;;;;;;;;4951446;28;20453;-65
2022/05/01 05:10:42;;;;;;;8.80;4.80;;;;;;;;;;4951006;28;20072;-65
2022/05/01 05:13:08;;;;;;;11.98;5.47;;;;;;;;;;4951485;28;20453;-64
2022/05/01 05:15:34;;;;;;;10.15;5.60;;;;;;;;;;4951873;28;20418;-65
2022/05/01 05:17:59;;;;;;;10.20;5.47;;;;;;;;;;4951466;28;20399;-66
2022/05/01 05:20:24;;;;;;;12.00;5.28;;;;;;;;;;4951530;28;20437;-65
2022/05/01 05:22:50;;;;;;;10.25;4.97;;;;;;;;;;4951484;28;20325;-65
2022/05/01 05:25:19;;;;;;;10.40;5.00;;;;;;;;;;4951623;28;20480;-65
2022/05/01 05:27:45;;;;;;;;;;;;;;;;;;4951750;28;20465;-65
2022/05/01 05:30:11;;;;;;;8.57;4.50;;;;;;;;;;4951216;28;20357;-65
2022/05/01 05:32:36;;;;;;;10.35;4.85;;;;;;;;;;4951087;28;20523;-66
2022/05/01 05:35:02;;;;;;;9.93;5.20;;;;;;;;;;4951036;28;20453;-65
2022/05/01 05:37:27;;;;;;;10.13;5.40;;;;;;;;;;4951770;28;20420;-65
2022/05/01 05:39:52;;;;;;;8.90;4.68;;;;;;;;;;4950993;28;20465;-65
2022/05/01 05:42:18;;;;;;;10.05;5.10;;;;;;;;;;4951294;28;20038;-65
2022/05/01 05:44:43;;;;;;;9.55;4.50;;;;;;;;;;4951628;28;20365;-65
2022/05/01 05:47:08;;;;;;;11.93;4.97;;;;;;;;;;4933744;28;20089;-65
2022/05/01 05:49:34;;;;;;;10.68;5.22;;;;;;;;;;4950809;28;20379;-66
2022/05/01 05:52:00;;;;;;;11.15;5.28;;;;;;;;;;4950829;28;20465;-65
2022/05/01 05:54:25;;;;;;;14.95;5.13;;;;;;;;;;4950692;28;20425;-65
2022/05/01 05:56:50;;;;;;;11.02;5.10;;;;;;;;;;4950660;28;20342;-64
2022/05/01 05:59:16;;;;;;;6.22;4.28;;;;;;;;;;4951700;28;20449;-65
2022/05/01 06:01:41;;;;;;;10.38;4.80;;;;;;;;;;4950814;28;20575;-65
2022/05/01 06:04:07;;;;;;;8.05;4.53;;;;;;;;;;4951231;28;20369;-65
2022/05/01 06:06:33;;;;;;;8.80;5.03;;;;;;;;;;4951282;28;20030;-65
2022/05/01 06:08:59;;;;;;;9.30;4.53;;;;;;;;;;4950330;28;20365;-66
2022/05/01 06:11:24;;;;;;;10.68;4.47;;;;;;;;;;4950206;28;20377;-65
2022/05/01 06:13:51;;;;;;;9.25;4.82;;;;;;;;;;4951468;28;20431;-65
2022/05/01 06:16:16;;;;;;;9.98;4.85;;;;;;;;;;4950533;28;20392;-65
2022/05/01 06:18:42;;;;;;;8.32;5.05;;;;;;;;;;4951544;28;20408;-65
2022/05/01 06:21:07;;;;;;;8.75;4.30;;;;;;;;;;4950857;28;20415;-66
2022/05/01 06:23:34;;;;;;;7.90;4.57;;;;;;;;;;4950529;28;20532;-64
2022/05/01 06:26:01;;;;;;;19.33;8.25;;;;;;;;;;4949297;28;20449;-63
2022/05/01 06:28:27;;;;;;;16.38;9.13;;;;;;;;;;4949943;28;20450;-64
2022/05/01 06:30:53;;;;;;;27.70;13.13;;;;;;;;;;4949351;28;20540;-64
2022/05/01 06:33:20;;;;;;;28.52;14.18;;;;;;;;;;4949613;28;20436;-64
2022/05/01 06:35:50;;;;;;;24.50;13.82;;;;;;;;;;4949426;28;20431;-65
2022/05/01 06:38:15;;;;;;;22.77;12.25;;;;;;;;;;4951014;28;20333;-64
2022/05/01 06:40:42;;;;;;;33.80;18.63;;;;;;;;;;4948573;28;20029;-65
2022/05/01 06:43:12;;;;;;;46.63;25.48;;;;;;;;;;4950395;28;20189;-65
2022/05/01 06:45:38;;;;;;;45.45;24.38;;;;;;;;;;4950825;28;20358;-65
2022/05/01 06:48:03;;;;;;;42.88;24.48;;;;;;;;;;4950742;28;20405;-65
2022/05/01 06:50:30;;;;;;;46.60;26.23;;;;;;;;;;4949958;28;20498;-64
2022/05/01 06:52:55;;;;;;;46.60;26.83;;;;;;;;;;4950991;28;20100;-65
2022/05/01 06:55:23;;;;;;;47.67;26.75;;;;;;;;;;4950515;28;20124;-64
2022/05/01 06:57:49;;;;;;;51.55;27.27;;;;;;;;;;4951109;28;20429;-65
2022/05/01 07:00:15;;;;;;;50.20;28.88;;;;;;;;;;4949510;28;20460;-65
2022/05/01 07:02:47;;;;;;;48.17;28.15;;;;;;;;;;4949524;28;20022;-65
2022/05/01 07:05:12;;;;;;;52.17;28.23;;;;;;;;;;4933113;28;20373;-65
2022/05/01 07:07:38;;;;;;;46.10;26.38;;;;;;;;;;4949623;28;20352;-65
2022/05/01 07:10:04;;;;;;;52.67;29.38;;;;;;;;;;4948524;28;20457;-65
2022/05/01 07:12:29;;;;;;;48.65;27.00;;;;;;;;;;4950138;28;20484;-65
2022/05/01 07:14:55;;;;;;;52.03;28.38;;;;;;;;;;4949320;28;20416;-64
2022/05/01 07:17:20;;;;;;;53.40;27.45;;;;;;;;;;4950204;28;20471;-65
2022/05/01 07:19:45;;;;;;;47.53;25.95;;;;;;;;;;4949579;28;20349;-65
2022/05/01 07:22:13;;;;;;;44.70;24.38;;;;;;;;;;4949901;28;20433;-64
2022/05/01 07:24:39;;;;;;;43.63;23.90;;;;;;;;;;4950750;28;20588;-64
2022/05/01 07:27:04;;;;;;;44.38;24.05;;;;;;;;;;4954216;28;20437;-65
2022/05/01 07:29:30;;;;;;;44.65;24.95;;;;;;;;;;4953237;28;20317;-64
2022/05/01 07:31:56;;;;;;;43.30;23.38;;;;;;;;;;4953609;28;20417;-64
2022/05/01 07:34:21;;;;;;;42.20;23.10;;;;;;;;;;4953070;28;20125;-65
2022/05/01 07:36:46;;;;;;;40.40;23.70;;;;;;;;;;4953766;28;20601;-65
2022/05/01 07:39:12;;;;;;;38.13;22.70;;;;;;;;;;4953370;28;20459;-64
2022/05/01 07:41:37;;;;;;;39.53;22.60;;;;;;;;;;4953308;28;20380;-64
2022/05/01 07:44:03;;;;;;;40.45;21.63;;;;;;;;;;4935572;28;20437;-64
2022/05/01 07:46:28;;;;;;;40.65;21.17;;;;;;;;;;4953256;28;20468;-64
2022/05/01 07:48:53;;;;;;;35.30;21.27;;;;;;;;;;4953557;28;20317;-65
2022/05/01 07:51:19;;;;;;;38.40;21.20;;;;;;;;;;4953888;28;20396;-64
2022/05/01 07:53:44;;;;;;;39.00;20.23;;;;;;;;;;4953331;28;20440;-64
2022/05/01 07:56:09;;;;;;;34.00;20.23;;;;;;;;;;4951973;28;20026;-64
2022/05/01 07:58:35;;;;;;;32.28;20.08;;;;;;;;;;4952861;28;20504;-64
2022/05/01 08:01:01;;;;;;;34.85;19.83;;;;;;;;;;4952627;28;20455;-64
2022/05/01 08:06:12;;;;;;;34.92;18.73;;;;;;;;;;4953809;28;20420;-64
2022/05/01 08:08:38;;;;;;;34.35;19.00;;;;;;;;;;4952707;28;20097;-64
2022/05/01 08:11:07;;;;;;;31.05;18.98;;;;;;;;;;4952645;28;20042;-64
2022/05/01 08:13:33;;;;;;;35.92;18.30;;;;;;;;;;4952215;28;20373;-64
2022/05/01 08:15:58;;;;;;;34.00;18.88;;;;;;;;;;4934951;28;20346;-64
2022/05/01 08:21:08;;;;;;;28.42;18.05;;;;;;;;;;4938717;28;20553;-65
2022/05/01 08:23:42;;;;;;;32.15;17.90;;;;;;;;;;4952474;28;20345;-64
2022/05/01 08:26:13;;;;;;;31.73;17.58;;;;;;;;;;4952798;28;20376;-65
2022/05/01 08:28:40;;;;;;;29.25;17.00;;;;;;;;;;4952578;28;20385;-64
2022/05/01 08:31:06;;;;;;;29.55;17.08;;;;;;;;;;4952180;28;20349;-64
2022/05/01 08:33:32;;;;;;;30.02;16.05;;;;;;;;;;4952183;28;20029;-64
2022/05/01 08:35:58;;;;;;;26.95;17.08;;;;;;;;;;4951613;28;20433;-64
2022/05/01 08:38:24;;;;;;;29.90;17.10;;;;;;;;;;4952928;28;20338;-64
2022/05/01 08:40:51;;;;;;;29.67;16.30;;;;;;;;;;4951853;28;20381;-64
2022/05/01 08:43:20;;;;;;;27.90;16.65;;;;;;;;;;4952097;28;20404;-64
2022/05/01 08:46:16;;;;;;;27.55;17.45;;;;;;;;;;4951975;28;20329;-64
2022/05/01 08:48:58;;;;;;;28.40;16.33;;;;;;;;;;4951938;28;20350;-65
2022/05/01 08:51:24;;;;;;;28.35;16.40;;;;;;;;;;4953780;28;20357;-64
2022/05/01 08:53:50;;;;;;;25.48;15.77;;;;;;;;;;4951895;28;20400;-65
2022/05/01 08:56:17;;;;;;;28.52;15.30;;;;;;;;;;4952331;28;20508;-64
2022/05/01 08:58:43;;;;;;;27.20;14.70;;;;;;;;;;4950081;28;20444;-65
2022/05/01 09:01:08;;;;;;;25.33;15.48;;;;;;;;;;4952791;28;20133;-64
2022/05/01 09:03:34;;;;;;;21.42;13.90;;;;;;;;;;4952072;28;20018;-64
2022/05/01 09:06:00;;;;;;;25.90;15.38;;;;;;;;;;4951476;28;20033;-64
2022/05/01 09:08:26;;;;;;;26.23;15.00;;;;;;;;;;4952026;28;20422;-64
2022/05/01 09:10:52;;;;;;;30.17;15.68;;;;;;;;;;4951011;28;20400;-64
2022/05/01 09:13:23;;;;;;;25.50;15.10;;;;;;;;;;4951698;28;20392;-64
2022/05/01 09:15:49;;;;;;;24.38;14.35;;;;;;;;;;4951492;28;20092;-64
2022/05/01 09:18:18;;;;;;;26.33;15.40;;;;;;;;;;4950719;28;20445;-65
2022/05/01 09:21:02;;;;;;;;;;;;;;;;;;4952579;28;20374;-64
2022/05/01 09:23:41;;;;;;;24.75;13.57;;;;;;;;;;4951571;28;20288;-64
2022/05/01 09:26:11;;;;;;;27.50;14.60;;;;;;;;;;4951132;28;20029;-64
2022/05/01 09:28:37;;;;;;;27.20;15.60;;;;;;;;;;4951089;28;20528;-64
2022/05/01 09:31:03;;;;;;;23.55;14.38;;;;;;;;;;4934340;28;20337;-65
2022/05/01 09:33:29;;;;;;;23.88;13.38;;;;;;;;;;4951919;28;20353;-64
2022/05/01 09:35:55;;;;;;;23.25;13.32;;;;;;;;;;4951445;28;20337;-64
2022/05/01 09:38:22;;;;;;;23.25;13.13;;;;;;;;;;4950926;28;20029;-64
2022/05/01 09:40:56;;;;;;;18.83;12.38;;;;;;;;;;4952752;28;20030;-64
2022/05/01 09:43:43;;;;;;;22.38;12.98;;;;;;;;;;4950899;28;20319;-65
2022/05/01 09:46:24;;;;;;;24.55;14.80;;;;;;;;;;4951134;28;20503;-64
2022/05/01 09:48:56;;;;;;;22.05;13.45;;;;;;;;;;4949809;28;20397;-64
2022/05/01 09:51:22;;;;;;;18.77;12.35;;;;;;;;;;4950701;28;20476;-65
2022/05/01 09:53:47;;;;;;;20.25;12.10;;;;;;;;;;4951180;28;20420;-64
2022/05/01 09:56:13;;;;;;;23.42;13.10;;;;;;;;;;4950564;28;20437;-64
2022/05/01 09:58:40;;;;;;;21.85;12.73;;;;;;;;;;4950723;28;20064;-65
2022/05/01 10:01:13;;;;;;;19.60;11.88;;;;;;;;;;4951905;28;20318;-64
2022/05/01 10:03:43;;;;;;;19.45;11.48;;;;;;;;;;4950687;28;20318;-63
2022/05/01 10:06:10;;;;;;;18.80;12.32;;;;;;;;;;4951773;28;20421;-64
2022/05/01 10:08:40;;;;;;;22.80;12.57;;;;;;;;;;4950622;28;20464;-64
2022/05/01 10:11:06;;;;;;;16.02;11.25;;;;;;;;;;4950223;28;20420;-64
2022/05/01 10:13:33;;;;;;;20.67;11.35;;;;;;;;;;4950516;28;20341;-65
2022/05/01 10:15:59;;;;;;;20.33;12.00;;;;;;;;;;4950792;28;20483;-64
2022/05/01 10:18:25;;;;;;;17.58;12.23;;;;;;;;;;4933650;28;20590;-64
2022/05/01 10:20:51;;;;;;;22.30;12.13;;;;;;;;;;4950389;28;20346;-64
2022/05/01 10:23:16;;;;;;;18.73;10.73;;;;;;;;;;4950086;28;20345;-65
2022/05/01 10:25:51;;;;;;;17.60;11.02;;;;;;;;;;4950479;28;20433;-65
2022/05/01 10:28:45;;;;;;;19.30;11.77;;;;;;;;;;4932764;28;20401;-65
2022/05/01 10:34:28;;;;;;;18.00;10.88;;;;;;;;;;4950114;28;20480;-64
2022/05/01 10:37:18;;;;;;;16.98;10.77;;;;;;;;;;4949946;28;20096;-65
2022/05/01 10:39:45;;;;;;;23.52;10.23;;;;;;;;;;4952498;28;20484;-64
2022/05/01 10:42:10;;;;;;;16.90;10.52;;;;;;;;;;4949668;28;20440;-64
2022/05/01 10:44:39;;;;;;;16.30;10.30;;;;;;;;;;4933001;28;20498;-65
2022/05/01 10:47:16;;;;;;;16.92;10.63;;;;;;;;;;4950791;28;20040;-64
2022/05/01 10:49:46;;;;;;;21.10;11.20;;;;;;;;;;4950106;28;20374;-64
2022/05/01 10:52:19;;;;;;;16.45;9.70;;;;;;;;;;4950800;28;20357;-64
2022/05/01 10:55:01;;;;;;;13.48;9.65;;;;;;;;;;4949505;28;20527;-64
2022/05/01 10:57:26;;;;;;;17.98;10.90;;;;;;;;;;4949733;28;20513;-65
2022/05/01 11:00:11;;;;;;;16.90;10.23;;;;;;;;;;4949075;28;20418;-64
2022/05/01 11:02:48;;;;;;;16.08;10.40;;;;;;;;;;4950679;28;20365;-64
2022/05/01 11:05:44;;;;;;;12.25;8.95;;;;;;;;;;4949650;28;20346;-65
2022/05/01 11:08:19;;;;;;;16.42;9.57;;;;;;;;;;4949740;28;20365;-64
2022/05/01 11:10:46;;;;;;;14.13;9.15;;;;;;;;;;4949395;28;20444;-65
2022/05/01 11:13:14;;;;;;;17.85;10.10;;;;;;;;;;4949662;28;20449;-65
2022/05/01 11:15:47;;;;;;;13.90;8.73;;;;;;;;;;4949644;28;20449;-65
2022/05/01 11:18:13;;;;;;;15.02;8.98;;;;;;;;;;4949515;28;20433;-64
2022/05/01 11:20:40;;;;;;;16.27;10.13;;;;;;;;;;4949531;28;20535;-64
2022/05/01 11:23:31;;;;;;;15.82;8.60;;;;;;;;;;4948262;28;20484;-66
2022/05/01 11:26:26;;;;;;;16.00;9.30;;;;;;;;;;4949863;28;20365;-64
2022/05/01 11:28:56;;;;;;;15.82;9.57;;;;;;;;;;4940099;28;20405;-64
2022/05/01 11:31:36;;;;;;;14.10;9.27;;;;;;;;;;4932007;28;20489;-64
2022/05/01 11:34:25;;;;;;;15.10;9.63;;;;;;;;;;4949438;28;20327;-65
2022/05/01 11:36:57;;;;;;;15.45;9.65;;;;;;;;;;4930632;28;20381;-65
2022/05/01 11:39:45;;;;;;;15.38;10.25;;;;;;;;;;4949240;28;20030;-65
2022/05/01 11:42:26;;;;;;;15.30;9.65;;;;;;;;;;4949423;28;20417;-66
2022/05/01 11:44:56;;;;;;;16.48;10.00;;;;;;;;;;4950181;28;20341;-65
2022/05/01 11:47:23;;;;;;;15.90;9.75;;;;;;;;;;4949382;28;20034;-65
2022/05/01 11:49:50;;;;;;;17.95;9.68;;;;;;;;;;4949592;28;20065;-65
2022/05/01 11:52:16;;;;;;;15.63;9.70;;;;;;;;;;4949566;28;20347;-66
2022/05/01 11:54:51;;;;;;;15.60;9.05;;;;;;;;;;4949146;28;20053;-64
2022/05/01 12:02:24;;;;;;;14.23;8.95;;;;;;;;;;4950128;28;20456;-64
2022/05/01 12:03:13;;;;;;;13.48;8.55;;;;;;;;;;4949120;28;20357;-64
2022/05/01 12:05:44;;;;;;;13.65;9.05;;;;;;;;;;4949743;28;20311;-64
2022/05/01 12:08:11;;;;;;;14.68;7.97;;;;;;;;;;4949765;28;20057;-64
2022/05/01 12:10:43;;;;;;;13.23;7.40;;;;;;;;;;4949359;28;20401;-64
2022/05/01 12:13:25;;;;;;;11.43;7.53;;;;;;;;;;4952737;28;20053;-64
2022/05/01 12:15:52;;;;;;;14.38;7.65;;;;;;;;;;4952706;28;20326;-64
2022/05/01 12:18:18;;;;;;;12.73;8.93;;;;;;;;;;4952378;28;20101;-64
2022/05/01 12:20:44;;;;;;;14.15;8.77;;;;;;;;;;4952417;28;20033;-64
2022/05/01 12:23:20;;;;;;;12.95;8.00;;;;;;;;;;4952747;28;20060;-64
2022/05/01 12:25:49;;;;;;;15.43;8.55;;;;;;;;;;4952604;28;20459;-65
2022/05/01 12:28:15;;;;;;;10.52;7.00;;;;;;;;;;4952236;28;20037;-65
2022/05/01 12:30:42;;;;;;;12.63;8.02;;;;;;;;;;4952320;28;20341;-64
2022/05/01 12:33:17;;;;;;;14.25;8.18;;;;;;;;;;4952365;28;20505;-64
2022/05/01 12:35:57;;;;;;;13.18;6.90;;;;;;;;;;4952598;28;20089;-66
2022/05/01 12:38:26;;;;;;;11.57;7.00;;;;;;;;;;4952532;28;20306;-64
2022/05/01 12:43:50;;;;;;;15.20;7.78;;;;;;;;;;4952468;28;20116;-64
2022/05/01 12:46:27;;;;;;;13.20;8.15;;;;;;;;;;4952170;28;20080;-64
2022/05/01 12:48:52;;;;;;;14.13;8.35;;;;;;;;;;4952207;28;20437;-65
2022/05/01 12:51:18;;;;;;;12.18;7.53;;;;;;;;;;4952302;28;20335;-65
2022/05/01 12:53:43;;;;;;;12.48;8.23;;;;;;;;;;4952373;28;20433;-64
2022/05/01 12:56:20;;;;;;;10.95;7.93;;;;;;;;;;4950922;28;20442;-65
2022/05/01 12:58:46;;;;;;;12.30;8.15;;;;;;;;;;4951645;28;20433;-64
2022/05/01 13:01:27;;;;;;;13.45;8.27;;;;;;;;;;4951846;28;20531;-67
2022/05/01 13:03:53;;;;;;;14.48;8.13;;;;;;;;;;4952103;28;20357;-65
2022/05/01 13:06:19;;;;;;;12.25;7.70;;;;;;;;;;4951758;28;20392;-65
2022/05/01 13:09:04;;;;;;;14.07;7.20;;;;;;;;;;4952080;28;20460;-65
2022/05/01 13:11:31;;;;;;;13.10;7.30;;;;;;;;;;4950720;28;20385;-65
2022/05/01 13:14:03;;;;;;;14.88;8.07;;;;;;;;;;4952181;28;20417;-65
2022/05/01 13:16:31;;;;;;;11.60;7.47;;;;;;;;;;4952693;28;20569;-65
2022/05/01 13:19:02;;;;;;;12.88;8.32;;;;;;;;;;4951181;28;20405;-65
2022/05/01 13:21:29;;;;;;;13.38;8.57;;;;;;;;;;4953207;28;20448;-64
2022/05/01 13:24:15;;;;;;;10.90;6.93;;;;;;;;;;4950638;28;20434;-64
2022/05/01 13:26:42;;;;;;;12.55;7.55;;;;;;;;;;4937774;28;20460;-65
2022/05/01 13:29:09;;;;;;;9.57;6.85;;;;;;;;;;4952476;28;20421;-65
2022/05/01 13:31:42;;;;;;;11.45;7.60;;;;;;;;;;4951027;28;20338;-64
2022/05/01 13:34:08;;;;;;;12.40;7.20;;;;;;;;;;4951242;28;20349;-65
2022/05/01 13:36:34;;;;;;;10.68;7.20;;;;;;;;;;4951969;28;20372;-65
2022/05/01 13:39:03;;;;;;;12.93;7.70;;;;;;;;;;4952683;28;20389;-65
2022/05/01 13:46:58;;;;;;;11.75;6.57;;;;;;;;;;4951516;28;20496;-65
2022/05/01 13:49:25;;;;;;;11.27;7.13;;;;;;;;;;4950988;28;20345;-64
2022/05/01 13:51:50;;;;;;;11.07;7.00;;;;;;;;;;4950959;28;20361;-65
2022/05/01 13:54:16;;;;;;;12.95;7.13;;;;;;;;;;4950935;28;20389;-65
2022/05/01 13:56:41;;;;;;;8.25;6.00;;;;;;;;;;4951347;28;20062;-65
2022/05/01 13:59:07;;;;;;;11.45;7.72;;;;;;;;;;4950672;28;20393;-64
2022/05/01 14:01:32;;;;;;;9.70;6.35;;;;;;;;;;4951166;28;20425;-66
2022/05/01 14:03:58;;;;;;;12.05;7.20;;;;;;;;;;4933011;28;20456;-64
2022/05/01 14:06:27;;;;;;;10.50;7.38;;;;;;;;;;4950605;28;20336;-65
2022/05/01 14:08:53;;;;;;;13.10;7.28;;;;;;;;;;4950633;28;20052;-66
2022/05/01 14:11:18;;;;;;;10.63;7.10;;;;;;;;;;4950136;28;20446;-64
2022/05/01 14:13:44;;;;;;;10.85;6.97;;;;;;;;;;4952458;28;20093;-65
2022/05/01 14:16:09;;;;;;;11.18;6.95;;;;;;;;;;4950392;28;20420;-65
2022/05/01 14:18:38;;;;;;;10.48;6.35;;;;;;;;;;4950841;28;20424;-64
2022/05/01 14:21:04;;;;;;;13.80;7.15;;;;;;;;;;4950453;28;20449;-65
2022/05/01 14:23:33;;;;;;;8.65;6.68;;;;;;;;;;4951266;28;20457;-65
2022/05/01 14:25:58;;;;;;;;;;;;;;;;;;4950659;28;20369;-65
2022/05/01 14:28:24;;;;;;;10.82;6.45;;;;;;;;;;4950261;28;20240;-65
2022/05/01 14:31:02;;;;;;;10.05;6.00;;;;;;;;;;4949775;28;20057;-64
2022/05/01 14:33:37;;;;;;;10.40;6.70;;;;;;;;;;4950452;28;20384;-64
2022/05/01 14:36:02;;;;;;;11.35;6.60;;;;;;;;;;4951541;28;20429;-64
2022/05/01 14:38:45;;;;;;;8.63;6.35;;;;;;;;;;4948111;28;20393;-65
2022/05/01 14:41:13;;;;;;;9.48;6.07;;;;;;;;;;4950990;28;20364;-64
2022/05/01 14:43:39;;;;;;;9.60;6.05;;;;;;;;;;4932062;28;20430;-65
2022/05/01 14:46:08;;;;;;;9.77;6.55;;;;;;;;;;4951271;28;20042;-65
2022/05/01 14:48:37;;;;;;;8.55;5.72;;;;;;;;;;4949792;28;20456;-64
2022/05/01 14:51:03;;;;;;;10.18;5.93;;;;;;;;;;4931948;28;20369;-64
2022/05/01 14:53:28;;;;;;;8.23;5.57;;;;;;;;;;4950081;28;20381;-64
2022/05/01 14:55:54;;;;;;;10.57;5.88;;;;;;;;;;4949636;28;20417;-65
2022/05/01 15:06:37;;;;;;;8.90;5.70;;;;;;;;;;4950855;28;20333;-65
2022/05/01 15:09:04;;;;;;;9.43;5.80;;;;;;;;;;4949293;28;20021;-65
2022/05/01 15:11:30;;;;;;;10.23;5.93;;;;;;;;;;4949299;28;20460;-64
2022/05/01 15:13:56;;;;;;;10.50;6.45;;;;;;;;;;4949600;28;20037;-65
2022/05/01 15:16:24;;;;;;;8.68;5.82;;;;;;;;;;4950059;28;20056;-66
2022/05/01 15:19:14;;;;;;;8.38;5.25;;;;;;;;;;4950754;28;20381;-65